Time;durP1;ratioP1;P1;durP2;ratioP2;P2;SDS_P1;SDS_P2;PMS_P1;PMS_P2;Temp;Humidity;BMP_temperature;BMP_pressure;BME280_temperature;BME280_humidity;BME280_pressure;Samples;Min_cycle;Max_cycle;Signal;HPM_P1;HPM_P2
2022/11/29 00:00:15;;;;;;;14.10;9.20;;;;;;;;;;104938;1313;23901;-32
2022/11/29 00:03:09;;;;;;;14.20;9.10;;;;;;;;;;104966;1311;23868;-32
2022/11/29 00:05:42;;;;;;;14.80;8.50;;;;;;;;;;105008;1301;25212;-32
2022/11/29 00:08:14;;;;;;;13.50;9.10;;;;;;;;;;105038;1310;22688;-32
2022/11/29 00:10:49;;;;;;;14.20;9.30;;;;;;;;;;105046;1295;22485;-32
2022/11/29 00:13:22;;;;;;;13.30;8.50;;;;;;;;;;104785;1313;22591;-32
2022/11/29 00:15:54;;;;;;;13.60;8.40;;;;;;;;;;104864;1305;22535;-32
2022/11/29 00:18:26;;;;;;;13.90;8.40;;;;;;;;;;104827;1304;22546;-32
2022/11/29 00:20:59;;;;;;;14.00;8.80;;;;;;;;;;104846;1307;22546;-32
2022/11/29 00:23:31;;;;;;;11.80;7.90;;;;;;;;;;104809;1307;22470;-32
2022/11/29 00:26:11;;;;;;;12.90;8.50;;;;;;;;;;104817;1307;22529;-31
2022/11/29 00:28:44;;;;;;;11.60;7.70;;;;;;;;;;104844;1305;23107;-32
2022/11/29 00:31:20;;;;;;;12.30;7.50;;;;;;;;;;104858;1312;22566;-32
2022/11/29 00:33:53;;;;;;;11.80;8.10;;;;;;;;;;104975;1303;25375;-32
2022/11/29 00:36:27;;;;;;;11.60;7.90;;;;;;;;;;104822;1307;24212;-32
2022/11/29 00:38:58;;;;;;;;;;;;;;;;;;104850;1314;22503;-32
2022/11/29 00:41:31;;;;;;;12.00;8.20;;;;;;;;;;104826;1313;22805;-32
2022/11/29 00:44:03;;;;;;;11.80;7.90;;;;;;;;;;104811;1304;22509;-32
2022/11/29 00:46:37;;;;;;;11.50;7.80;;;;;;;;;;104805;1301;22556;-32
2022/11/29 00:49:09;;;;;;;12.20;7.50;;;;;;;;;;104850;1313;22547;-31
2022/11/29 00:51:42;;;;;;;10.10;7.50;;;;;;;;;;104825;1303;22496;-32
2022/11/29 00:54:14;;;;;;;10.80;7.60;;;;;;;;;;104807;1301;22533;-32
2022/11/29 00:56:50;;;;;;;10.70;7.90;;;;;;;;;;104841;1308;22543;-32
2022/11/29 00:59:25;;;;;;;10.60;7.40;;;;;;;;;;104761;1312;25265;-32
2022/11/29 01:01:58;;;;;;;10.40;7.00;;;;;;;;;;104836;1314;22582;-32
2022/11/29 01:04:32;;;;;;;11.10;7.00;;;;;;;;;;104745;1308;22563;-32
2022/11/29 01:07:07;;;;;;;9.80;7.10;;;;;;;;;;104776;1310;24233;-32
2022/11/29 01:09:42;;;;;;;11.00;7.70;;;;;;;;;;104794;1314;24033;-32
2022/11/29 01:12:14;;;;;;;10.40;7.10;;;;;;;;;;104795;1308;22491;-32
2022/11/29 01:14:49;;;;;;;11.70;7.10;;;;;;;;;;104783;1298;23885;-32
2022/11/29 01:17:21;;;;;;;10.80;7.10;;;;;;;;;;104833;1306;22666;-32
2022/11/29 01:19:54;;;;;;;10.20;7.10;;;;;;;;;;104872;1313;22522;-32
2022/11/29 01:22:26;;;;;;;9.90;6.90;;;;;;;;;;104827;1308;22503;-32
2022/11/29 01:24:59;;;;;;;11.00;6.80;;;;;;;;;;104839;1306;22479;-32
2022/11/29 01:27:31;;;;;;;9.90;7.00;;;;;;;;;;104871;1312;22509;-32
2022/11/29 01:30:04;;;;;;;10.40;7.10;;;;;;;;;;104866;1314;22532;-32
2022/11/29 01:32:38;;;;;;;9.40;6.40;;;;;;;;;;104859;1306;22549;-32
2022/11/29 01:35:11;;;;;;;9.90;6.40;;;;;;;;;;104750;1303;23793;-32
2022/11/29 01:37:44;;;;;;;9.10;6.40;;;;;;;;;;104867;1300;22481;-32
2022/11/29 01:40:18;;;;;;;9.00;6.50;;;;;;;;;;104812;1314;22492;-32
2022/11/29 01:42:53;;;;;;;9.60;6.70;;;;;;;;;;104786;1313;22553;-32
2022/11/29 01:45:27;;;;;;;8.90;6.50;;;;;;;;;;104825;1313;22610;-32
2022/11/29 01:48:00;;;;;;;8.80;6.50;;;;;;;;;;104819;1304;22535;-31
2022/11/29 01:50:32;;;;;;;8.70;5.90;;;;;;;;;;104793;1313;22545;-32
2022/11/29 01:53:04;;;;;;;;;;;;;;;;;;104830;1307;22464;-32
2022/11/29 01:55:43;;;;;;;9.50;6.60;;;;;;;;;;104774;1309;22541;-32
2022/11/29 01:58:16;;;;;;;8.60;6.10;;;;;;;;;;104819;1312;23033;-32
2022/11/29 02:00:52;;;;;;;9.30;6.50;;;;;;;;;;104807;1312;22473;-32
2022/11/29 02:03:24;;;;;;;10.10;6.50;;;;;;;;;;104809;1303;22555;-32
2022/11/29 02:06:00;;;;;;;8.80;6.20;;;;;;;;;;104816;1314;22524;-32
2022/11/29 02:08:41;;;;;;;8.20;5.80;;;;;;;;;;104796;1304;22547;-32
2022/11/29 02:11:49;;;;;;;9.80;6.20;;;;;;;;;;104841;1303;22525;-32
2022/11/29 02:14:44;;;;;;;8.30;6.20;;;;;;;;;;104757;1313;25466;-32
2022/11/29 02:17:33;;;;;;;8.00;6.00;;;;;;;;;;104802;1307;23976;-32
2022/11/29 02:20:42;;;;;;;9.20;6.40;;;;;;;;;;104822;1313;22479;-31
2022/11/29 02:23:44;;;;;;;9.10;6.10;;;;;;;;;;104819;1299;22538;-32
2022/11/29 02:26:36;;;;;;;9.50;6.20;;;;;;;;;;104944;1295;25415;-32
2022/11/29 02:29:52;;;;;;;9.00;6.10;;;;;;;;;;104981;1299;22578;-32
2022/11/29 02:33:07;;;;;;;8.60;6.30;;;;;;;;;;105002;1296;22530;-32
2022/11/29 02:36:16;;;;;;;8.50;5.90;;;;;;;;;;104900;1315;22494;-32
2022/11/29 02:39:07;;;;;;;8.50;5.70;;;;;;;;;;104881;1298;22534;-32
2022/11/29 02:42:06;;;;;;;7.70;5.40;;;;;;;;;;104844;1301;22499;-32
2022/11/29 02:45:08;;;;;;;8.30;6.00;;;;;;;;;;104823;1306;22505;-32
2022/11/29 02:47:55;;;;;;;8.30;5.70;;;;;;;;;;104847;1298;23853;-32
2022/11/29 02:50:43;;;;;;;8.20;5.80;;;;;;;;;;104873;1310;22490;-32
2022/11/29 02:53:23;;;;;;;8.70;6.20;;;;;;;;;;104848;1314;22536;-32
2022/11/29 02:56:03;;;;;;;8.80;6.10;;;;;;;;;;104775;1305;22509;-32
2022/11/29 02:58:47;;;;;;;8.30;5.60;;;;;;;;;;104804;1297;22568;-32
2022/11/29 03:01:23;;;;;;;;;;;;;;;;;;104825;1310;23655;-32
2022/11/29 03:04:07;;;;;;;8.50;5.80;;;;;;;;;;104833;1300;22485;-32
2022/11/29 03:06:50;;;;;;;8.60;5.80;;;;;;;;;;104838;1297;22497;-32
2022/11/29 03:09:34;;;;;;;7.70;5.70;;;;;;;;;;104837;1314;22495;-32
2022/11/29 03:12:19;;;;;;;7.30;5.30;;;;;;;;;;104911;1287;22485;-32
2022/11/29 03:15:17;;;;;;;8.00;5.80;;;;;;;;;;104887;1307;22529;-32
2022/11/29 03:18:03;;;;;;;7.00;5.30;;;;;;;;;;104970;1304;22474;-32
2022/11/29 03:20:52;;;;;;;8.40;5.40;;;;;;;;;;104984;1310;24269;-32
2022/11/29 03:23:31;;;;;;;7.40;5.70;;;;;;;;;;104992;1295;22546;-32
2022/11/29 03:26:10;;;;;;;8.00;5.20;;;;;;;;;;104921;1304;22530;-32
2022/11/29 03:28:51;;;;;;;7.30;5.20;;;;;;;;;;104865;1313;22549;-32
2022/11/29 03:31:30;;;;;;;8.10;6.10;;;;;;;;;;104884;1313;22476;-32
2022/11/29 03:34:13;;;;;;;7.50;5.50;;;;;;;;;;104860;1307;22552;-32
2022/11/29 03:36:47;;;;;;;;;;;;;;;;;;104847;1306;22464;-32
2022/11/29 03:39:25;;;;;;;7.30;5.30;;;;;;;;;;104867;1310;22528;-31
2022/11/29 03:42:04;;;;;;;8.00;5.30;;;;;;;;;;104816;1307;22639;-32
2022/11/29 03:44:43;;;;;;;8.20;5.60;;;;;;;;;;104874;1310;22477;-32
2022/11/29 03:47:24;;;;;;;7.50;5.20;;;;;;;;;;104835;1311;22502;-32
2022/11/29 03:50:03;;;;;;;7.20;4.90;;;;;;;;;;104891;1308;22528;-31
2022/11/29 03:52:45;;;;;;;8.30;5.60;;;;;;;;;;104890;1310;24179;-32
2022/11/29 03:55:52;;;;;;;7.90;5.10;;;;;;;;;;104849;1310;22528;-32
2022/11/29 03:58:42;;;;;;;7.90;5.40;;;;;;;;;;104850;1306;22558;-32
2022/11/29 04:02:16;;;;;;;8.00;5.20;;;;;;;;;;104878;1307;22549;-32
2022/11/29 04:05:31;;;;;;;7.50;5.10;;;;;;;;;;104764;1311;22809;-32
2022/11/29 04:08:57;;;;;;;7.30;4.90;;;;;;;;;;104899;1311;22699;-32
2022/11/29 04:12:20;;;;;;;7.50;5.20;;;;;;;;;;105023;1303;22555;-32
2022/11/29 04:15:43;;;;;;;6.90;4.90;;;;;;;;;;105045;1294;22536;-32
2022/11/29 04:19:03;;;;;;;7.60;5.00;;;;;;;;;;104963;1301;22489;-32
2022/11/29 04:22:18;;;;;;;8.00;5.40;;;;;;;;;;104975;1296;22477;-32
2022/11/29 04:25:22;;;;;;;7.60;5.10;;;;;;;;;;104986;1300;24270;-32
2022/11/29 04:28:30;;;;;;;7.80;5.00;;;;;;;;;;104967;1313;22545;-32
2022/11/29 04:31:21;;;;;;;7.60;5.30;;;;;;;;;;105039;1300;22562;-32
2022/11/29 04:34:45;;;;;;;7.50;5.10;;;;;;;;;;105063;1304;22563;-32
2022/11/29 04:37:54;;;;;;;7.00;4.70;;;;;;;;;;104817;1305;27367;-32
2022/11/29 04:40:44;;;;;;;6.90;5.00;;;;;;;;;;104961;1299;22537;-32
2022/11/29 04:43:51;;;;;;;7.40;5.10;;;;;;;;;;104960;1304;22538;-32
2022/11/29 04:46:55;;;;;;;7.80;5.20;;;;;;;;;;104946;1294;22511;-32
2022/11/29 04:50:07;;;;;;;7.50;5.40;;;;;;;;;;105045;1301;22719;-32
2022/11/29 04:52:58;;;;;;;7.30;5.30;;;;;;;;;;104982;1309;22528;-32
2022/11/29 04:55:47;;;;;;;6.80;4.70;;;;;;;;;;105032;1310;22584;-32
2022/11/29 04:58:30;;;;;;;7.40;5.10;;;;;;;;;;104977;1300;23911;-32
2022/11/29 05:01:11;;;;;;;6.70;4.70;;;;;;;;;;104921;1311;22521;-32
2022/11/29 05:03:53;;;;;;;7.00;5.00;;;;;;;;;;104896;1304;22557;-32
2022/11/29 05:06:38;;;;;;;8.40;5.00;;;;;;;;;;104960;1305;22522;-32
2022/11/29 05:09:23;;;;;;;6.70;4.80;;;;;;;;;;104951;1311;22542;-32
2022/11/29 05:12:08;;;;;;;6.70;4.40;;;;;;;;;;105049;1308;22532;-32
2022/11/29 05:14:57;;;;;;;6.80;4.60;;;;;;;;;;105010;1302;22521;-32
2022/11/29 05:17:42;;;;;;;7.40;4.70;;;;;;;;;;105029;1293;22526;-32
2022/11/29 05:20:35;;;;;;;6.40;4.50;;;;;;;;;;104801;1292;22510;-31
2022/11/29 05:23:37;;;;;;;6.60;4.70;;;;;;;;;;104845;1302;22679;-32
2022/11/29 05:26:18;;;;;;;8.10;4.70;;;;;;;;;;104832;1298;22539;-31
2022/11/29 05:29:02;;;;;;;6.90;4.50;;;;;;;;;;104866;1293;22566;-32
2022/11/29 05:31:55;;;;;;;6.30;4.30;;;;;;;;;;105073;1298;22555;-32
2022/11/29 05:34:54;;;;;;;5.90;4.30;;;;;;;;;;105042;1299;23144;-31
2022/11/29 05:37:42;;;;;;;7.00;4.80;;;;;;;;;;105014;1303;22948;-32
2022/11/29 05:40:58;;;;;;;7.10;4.70;;;;;;;;;;104924;1303;22565;-31
2022/11/29 05:43:59;;;;;;;7.60;5.10;;;;;;;;;;104336;1319;22626;-32
2022/11/29 05:46:37;;;;;;;6.40;4.50;;;;;;;;;;104927;1305;25369;-32
2022/11/29 05:49:25;;;;;;;6.80;5.00;;;;;;;;;;104895;1298;22494;-32
2022/11/29 05:52:16;;;;;;;7.30;5.10;;;;;;;;;;105028;1304;25386;-31
2022/11/29 05:55:03;;;;;;;8.10;5.70;;;;;;;;;;105051;1311;23894;-32
2022/11/29 05:57:46;;;;;;;7.90;5.00;;;;;;;;;;105051;1294;22578;-32
2022/11/29 06:00:26;;;;;;;8.00;4.90;;;;;;;;;;104939;1306;22599;-32
2022/11/29 06:03:09;;;;;;;7.50;5.00;;;;;;;;;;104913;1307;24240;-32
2022/11/29 06:05:48;;;;;;;7.20;4.90;;;;;;;;;;104911;1311;22564;-32
2022/11/29 06:08:33;;;;;;;7.80;5.10;;;;;;;;;;104916;1310;22540;-31
2022/11/29 06:11:14;;;;;;;8.00;5.30;;;;;;;;;;104950;1304;25536;-32
2022/11/29 06:14:08;;;;;;;8.90;5.70;;;;;;;;;;104974;1310;22804;-32
2022/11/29 06:17:06;;;;;;;7.30;4.80;;;;;;;;;;105010;1303;24229;-32
2022/11/29 06:19:57;;;;;;;8.80;5.30;;;;;;;;;;104971;1304;22553;-31
2022/11/29 06:22:57;;;;;;;7.50;5.20;;;;;;;;;;105011;1305;22501;-32
2022/11/29 06:25:47;;;;;;;7.30;5.00;;;;;;;;;;105070;1313;22494;-32
2022/11/29 06:28:38;;;;;;;8.00;5.00;;;;;;;;;;105085;1305;24218;-32
2022/11/29 06:31:21;;;;;;;8.00;5.40;;;;;;;;;;105004;1297;22627;-32
2022/11/29 06:34:06;;;;;;;7.60;4.90;;;;;;;;;;104881;1309;315597;-32
2022/11/29 06:36:44;;;;;;;8.20;5.10;;;;;;;;;;105077;1306;23895;-32
2022/11/29 06:39:18;;;;;;;8.10;5.20;;;;;;;;;;105080;1310;22729;-33
2022/11/29 06:41:51;;;;;;;7.70;5.30;;;;;;;;;;105145;1294;22529;-33
2022/11/29 06:44:31;;;;;;;7.50;5.00;;;;;;;;;;105036;1307;22472;-32
2022/11/29 06:47:10;;;;;;;8.10;5.40;;;;;;;;;;105065;1308;23793;-32
2022/11/29 06:49:51;;;;;;;7.90;5.30;;;;;;;;;;105042;1311;22491;-32
2022/11/29 06:52:41;;;;;;;8.10;4.80;;;;;;;;;;105079;1297;25460;-32
2022/11/29 06:55:22;;;;;;;7.30;5.10;;;;;;;;;;105129;1293;22518;-32
2022/11/29 06:58:06;;;;;;;7.20;5.20;;;;;;;;;;105077;1304;22515;-32
2022/11/29 07:00:52;;;;;;;7.10;4.60;;;;;;;;;;105081;1301;22511;-32
2022/11/29 07:03:56;;;;;;;7.50;5.00;;;;;;;;;;105081;1308;23116;-32
2022/11/29 07:06:30;;;;;;;7.40;5.10;;;;;;;;;;105047;1303;22529;-32
2022/11/29 07:09:13;;;;;;;7.50;5.10;;;;;;;;;;105040;1308;22524;-32
2022/11/29 07:11:48;;;;;;;8.10;5.50;;;;;;;;;;105016;1294;22042;-32
2022/11/29 07:14:24;;;;;;;6.90;4.80;;;;;;;;;;105071;1295;22518;-32
2022/11/29 07:17:07;;;;;;;7.30;5.20;;;;;;;;;;105032;1300;22491;-32
2022/11/29 07:19:53;;;;;;;7.30;4.80;;;;;;;;;;105073;1304;22483;-32
2022/11/29 07:22:46;;;;;;;7.70;4.90;;;;;;;;;;105063;1289;23750;-32
2022/11/29 07:25:34;;;;;;;7.50;5.20;;;;;;;;;;105070;1307;22602;-32
2022/11/29 07:28:25;;;;;;;7.90;5.20;;;;;;;;;;105057;1293;22529;-33
2022/11/29 07:31:09;;;;;;;7.00;4.70;;;;;;;;;;105024;1305;25878;-32
2022/11/29 07:33:55;;;;;;;7.40;4.90;;;;;;;;;;105040;1311;22566;-32
2022/11/29 07:36:37;;;;;;;8.40;5.50;;;;;;;;;;105018;1304;22491;-32
2022/11/29 07:39:29;;;;;;;7.40;5.10;;;;;;;;;;105065;1310;22584;-32
2022/11/29 07:42:13;;;;;;;7.30;4.80;;;;;;;;;;105047;1298;23875;-32
2022/11/29 07:44:54;;;;;;;7.30;5.10;;;;;;;;;;105044;1302;22534;-32
2022/11/29 07:47:27;;;;;;;7.30;4.80;;;;;;;;;;105097;1296;25225;-32
2022/11/29 07:50:01;;;;;;;7.70;5.40;;;;;;;;;;105036;1289;22536;-32
2022/11/29 07:52:36;;;;;;;7.70;5.60;;;;;;;;;;105018;1296;22484;-32
2022/11/29 07:55:14;;;;;;;7.00;4.90;;;;;;;;;;105036;1307;22476;-32
2022/11/29 07:57:54;;;;;;;7.60;5.10;;;;;;;;;;105095;1295;22517;-32
2022/11/29 08:00:31;;;;;;;7.30;5.00;;;;;;;;;;105025;1302;22599;-32
2022/11/29 08:03:04;;;;;;;8.90;5.40;;;;;;;;;;105111;1288;22514;-32
2022/11/29 08:05:37;;;;;;;7.50;5.00;;;;;;;;;;105106;1304;22479;-32
2022/11/29 08:08:16;;;;;;;7.70;5.00;;;;;;;;;;105094;1307;22475;-32
2022/11/29 08:10:51;;;;;;;7.00;4.90;;;;;;;;;;105128;1302;22480;-31
2022/11/29 08:13:24;;;;;;;7.70;5.00;;;;;;;;;;105021;1297;25243;-32
2022/11/29 08:15:56;;;;;;;7.60;5.50;;;;;;;;;;105043;1302;25405;-32
2022/11/29 08:18:28;;;;;;;6.70;5.00;;;;;;;;;;105030;1307;22543;-31
2022/11/29 08:21:01;;;;;;;7.70;5.40;;;;;;;;;;105053;1305;24167;-32
2022/11/29 08:23:33;;;;;;;7.70;5.30;;;;;;;;;;105023;1294;22491;-32
2022/11/29 08:26:06;;;;;;;6.90;5.00;;;;;;;;;;105049;1303;25248;-32
2022/11/29 08:28:39;;;;;;;7.40;5.20;;;;;;;;;;105088;1297;22501;-32
2022/11/29 08:31:14;;;;;;;7.40;5.20;;;;;;;;;;105059;1308;22813;-31
2022/11/29 08:33:47;;;;;;;7.00;5.00;;;;;;;;;;105033;1295;24381;-32
2022/11/29 08:36:21;;;;;;;7.60;5.10;;;;;;;;;;105029;1303;22991;-32
2022/11/29 08:38:56;;;;;;;6.80;4.90;;;;;;;;;;105031;1303;22562;-32
2022/11/29 08:41:28;;;;;;;9.70;5.70;;;;;;;;;;105058;1295;23695;-32
2022/11/29 08:44:00;;;;;;;8.60;5.20;;;;;;;;;;105035;1287;22532;-32
2022/11/29 08:49:19;;;;;;;7.50;5.30;;;;;;;;;;105059;1299;22520;-32
2022/11/29 08:53:39;;;;;;;8.30;5.10;;;;;;;;;;105046;1304;22531;-32
2022/11/29 08:54:45;;;;;;;8.20;5.40;;;;;;;;;;105049;1307;22544;-32
2022/11/29 08:57:17;;;;;;;7.30;5.20;;;;;;;;;;105062;1310;22610;-32
2022/11/29 08:59:50;;;;;;;8.50;5.00;;;;;;;;;;105096;1304;22911;-32
2022/11/29 09:02:22;;;;;;;7.60;5.10;;;;;;;;;;105058;1305;22522;-32
2022/11/29 09:04:55;;;;;;;7.30;5.50;;;;;;;;;;105037;1304;25253;-32
2022/11/29 09:07:29;;;;;;;8.00;5.40;;;;;;;;;;105045;1302;22495;-31
2022/11/29 09:10:03;;;;;;;7.30;5.60;;;;;;;;;;104895;1311;22473;-32
2022/11/29 09:12:36;;;;;;;7.90;5.30;;;;;;;;;;105087;1304;22542;-32
2022/11/29 09:15:15;;;;;;;8.60;5.40;;;;;;;;;;105046;1298;22475;-33
2022/11/29 09:17:48;;;;;;;7.40;5.10;;;;;;;;;;105079;1311;22524;-32
2022/11/29 09:20:21;;;;;;;8.00;5.60;;;;;;;;;;105084;1310;22528;-32
2022/11/29 09:22:55;;;;;;;7.40;5.50;;;;;;;;;;104898;1303;22544;-32
2022/11/29 09:25:28;;;;;;;8.30;5.70;;;;;;;;;;105032;1287;22547;-33
2022/11/29 09:28:06;;;;;;;;;;;;;;;;;;105076;1307;23049;-32
2022/11/29 09:30:39;;;;;;;7.40;5.50;;;;;;;;;;104856;1296;22546;-34
2022/11/29 09:33:11;;;;;;;8.20;5.70;;;;;;;;;;104855;1300;22523;-34
2022/11/29 09:35:44;;;;;;;8.10;5.70;;;;;;;;;;104807;1303;22500;-34
2022/11/29 09:38:16;;;;;;;7.00;5.10;;;;;;;;;;104813;1297;22533;-33
2022/11/29 09:40:54;;;;;;;7.70;5.80;;;;;;;;;;104911;1308;22472;-32
2022/11/29 09:43:33;;;;;;;7.30;5.30;;;;;;;;;;104875;1304;22591;-33
2022/11/29 09:46:16;;;;;;;8.50;5.80;;;;;;;;;;104896;1305;25372;-32
2022/11/29 09:49:14;;;;;;;7.80;5.50;;;;;;;;;;104955;1294;25373;-32
2022/11/29 09:51:54;;;;;;;7.50;5.70;;;;;;;;;;104906;1288;24330;-34
2022/11/29 09:54:37;;;;;;;7.90;6.20;;;;;;;;;;104802;1305;22551;-33
2022/11/29 09:57:10;;;;;;;7.80;5.80;;;;;;;;;;104764;1309;22581;-34
2022/11/29 09:59:45;;;;;;;8.20;6.30;;;;;;;;;;104842;1305;22590;-34
2022/11/29 10:02:25;;;;;;;8.80;5.90;;;;;;;;;;104761;1286;22487;-34
2022/11/29 10:05:03;;;;;;;8.00;6.00;;;;;;;;;;104869;1297;22541;-35
2022/11/29 10:07:45;;;;;;;8.20;6.40;;;;;;;;;;104949;1303;22586;-33
2022/11/29 10:10:24;;;;;;;8.20;6.20;;;;;;;;;;104985;1299;22557;-34
2022/11/29 10:13:05;;;;;;;7.80;5.50;;;;;;;;;;105007;1304;22492;-34
2022/11/29 10:15:43;;;;;;;7.90;5.70;;;;;;;;;;104922;1304;22609;-34
2022/11/29 10:18:23;;;;;;;7.10;5.50;;;;;;;;;;104965;1288;22517;-34
2022/11/29 10:21:05;;;;;;;7.30;5.70;;;;;;;;;;104942;1305;22556;-32
2022/11/29 10:23:44;;;;;;;7.80;5.70;;;;;;;;;;104956;1311;22546;-33
2022/11/29 10:26:17;;;;;;;7.40;5.40;;;;;;;;;;104968;1297;22482;-33
2022/11/29 10:28:50;;;;;;;7.70;5.80;;;;;;;;;;105092;1304;25851;-33
2022/11/29 10:31:27;;;;;;;7.00;5.40;;;;;;;;;;105067;1307;22544;-33
2022/11/29 10:34:09;;;;;;;7.80;6.00;;;;;;;;;;104988;1296;22562;-33
2022/11/29 10:36:46;;;;;;;7.50;5.70;;;;;;;;;;104987;1309;22727;-33
2022/11/29 10:39:26;;;;;;;8.40;6.40;;;;;;;;;;104974;1308;22627;-33
2022/11/29 10:42:03;;;;;;;7.60;5.80;;;;;;;;;;105011;1307;22509;-33
2022/11/29 10:44:36;;;;;;;7.50;5.60;;;;;;;;;;105040;1297;25463;-33
2022/11/29 10:47:09;;;;;;;7.20;5.30;;;;;;;;;;105011;1303;22952;-32
2022/11/29 10:49:41;;;;;;;7.50;5.60;;;;;;;;;;105034;1303;22529;-32
2022/11/29 10:52:22;;;;;;;7.40;5.50;;;;;;;;;;105023;1307;22556;-33
2022/11/29 10:55:02;;;;;;;7.40;5.20;;;;;;;;;;105026;1297;22532;-32
2022/11/29 10:57:34;;;;;;;7.40;5.50;;;;;;;;;;105021;1308;23056;-33
2022/11/29 11:00:16;;;;;;;7.70;5.70;;;;;;;;;;105037;1311;22528;-32
2022/11/29 11:02:49;;;;;;;7.20;5.60;;;;;;;;;;105056;1303;22523;-32
2022/11/29 11:05:30;;;;;;;7.50;5.70;;;;;;;;;;105016;1297;22533;-32
2022/11/29 11:08:04;;;;;;;7.90;5.60;;;;;;;;;;104791;1306;22529;-33
2022/11/29 11:10:37;;;;;;;7.20;5.40;;;;;;;;;;104842;1289;22861;-33
2022/11/29 11:13:20;;;;;;;;;;;;;;;;;;104826;1309;22513;-33
2022/11/29 11:15:57;;;;;;;7.40;5.30;;;;;;;;;;104806;1304;22501;-33
2022/11/29 11:18:30;;;;;;;7.50;6.00;;;;;;;;;;105026;1298;22567;-33
2022/11/29 11:21:04;;;;;;;7.00;5.40;;;;;;;;;;105005;1301;22521;-33
2022/11/29 11:23:41;;;;;;;8.00;5.30;;;;;;;;;;105039;1310;22545;-33
2022/11/29 11:26:16;;;;;;;7.00;5.60;;;;;;;;;;104984;1305;22540;-32
2022/11/29 11:28:55;;;;;;;7.50;5.50;;;;;;;;;;105018;1307;22550;-31
2022/11/29 11:31:37;;;;;;;7.70;5.70;;;;;;;;;;105055;1297;22537;-33
2022/11/29 11:34:32;;;;;;;7.30;5.50;;;;;;;;;;105021;1310;22557;-32
2022/11/29 11:37:28;;;;;;;7.00;5.20;;;;;;;;;;104994;1304;22477;-33
2022/11/29 11:40:27;;;;;;;9.00;5.80;;;;;;;;;;105018;1302;22985;-33
2022/11/29 11:43:03;;;;;;;7.20;5.40;;;;;;;;;;105049;1305;22594;-32
2022/11/29 11:45:37;;;;;;;7.60;5.80;;;;;;;;;;105052;1306;25342;-33
2022/11/29 11:48:16;;;;;;;7.00;5.10;;;;;;;;;;104999;1298;22550;-33
2022/11/29 11:50:55;;;;;;;7.90;5.30;;;;;;;;;;105036;1305;22559;-33
2022/11/29 11:53:32;;;;;;;7.30;5.50;;;;;;;;;;105022;1303;22584;-33
2022/11/29 11:56:09;;;;;;;7.60;5.50;;;;;;;;;;105047;1295;24263;-33
2022/11/29 11:58:48;;;;;;;7.60;5.80;;;;;;;;;;105047;1298;22535;-33
2022/11/29 12:01:30;;;;;;;7.60;5.80;;;;;;;;;;104999;1304;24246;-33
2022/11/29 12:04:09;;;;;;;7.20;5.30;;;;;;;;;;105030;1301;22492;-33
2022/11/29 12:06:50;;;;;;;7.70;5.60;;;;;;;;;;104983;1311;22530;-33
2022/11/29 12:09:39;;;;;;;6.90;5.60;;;;;;;;;;105087;1296;22534;-33
2022/11/29 12:12:19;;;;;;;7.70;5.70;;;;;;;;;;105047;1298;22483;-33
2022/11/29 12:14:59;;;;;;;6.60;5.40;;;;;;;;;;105092;1311;22530;-33
2022/11/29 12:17:39;;;;;;;7.70;5.50;;;;;;;;;;104821;1304;22529;-33
2022/11/29 12:20:24;;;;;;;7.40;5.80;;;;;;;;;;105066;1303;25479;-33
2022/11/29 12:23:22;;;;;;;7.10;5.50;;;;;;;;;;105041;1294;22524;-33
2022/11/29 12:26:03;;;;;;;7.40;5.40;;;;;;;;;;105052;1294;22507;-33
2022/11/29 12:28:43;;;;;;;7.10;5.20;;;;;;;;;;104988;1303;23808;-33
2022/11/29 12:31:30;;;;;;;7.40;5.40;;;;;;;;;;105025;1299;23909;-33
2022/11/29 12:34:23;;;;;;;7.60;5.40;;;;;;;;;;105015;1298;22568;-33
2022/11/29 12:37:04;;;;;;;7.30;5.70;;;;;;;;;;105047;1303;22550;-33
2022/11/29 12:39:55;;;;;;;7.50;5.80;;;;;;;;;;105092;1303;22490;-33
2022/11/29 12:42:48;;;;;;;7.20;5.30;;;;;;;;;;105012;1296;22975;-32
2022/11/29 12:45:38;;;;;;;7.20;5.30;;;;;;;;;;105037;1301;25321;-33
2022/11/29 12:48:28;;;;;;;8.10;5.50;;;;;;;;;;104986;1303;23364;-33
2022/11/29 12:51:10;;;;;;;7.90;5.70;;;;;;;;;;104944;1311;22496;-33
2022/11/29 12:54:06;;;;;;;7.30;5.50;;;;;;;;;;104899;1288;22550;-33
2022/11/29 12:56:43;;;;;;;7.20;5.60;;;;;;;;;;104958;1306;22573;-33
2022/11/29 12:59:36;;;;;;;7.50;5.60;;;;;;;;;;105029;1295;22623;-33
2022/11/29 13:02:28;;;;;;;7.20;5.00;;;;;;;;;;105022;1310;25441;-33
2022/11/29 13:05:10;;;;;;;7.30;5.80;;;;;;;;;;104999;1302;25386;-33
2022/11/29 13:07:59;;;;;;;7.70;5.70;;;;;;;;;;104995;1306;25210;-32
2022/11/29 13:10:52;;;;;;;6.90;5.40;;;;;;;;;;104902;1304;22528;-33
2022/11/29 13:13:38;;;;;;;7.40;5.70;;;;;;;;;;104983;1306;22536;-33
2022/11/29 13:16:30;;;;;;;7.20;5.50;;;;;;;;;;104955;1312;22548;-33
2022/11/29 13:19:11;;;;;;;7.10;5.50;;;;;;;;;;104945;1298;22526;-33
2022/11/29 13:21:54;;;;;;;7.10;5.60;;;;;;;;;;104905;1297;25492;-33
2022/11/29 13:24:32;;;;;;;7.90;5.70;;;;;;;;;;104864;1297;22616;-33
2022/11/29 13:27:06;;;;;;;7.70;5.90;;;;;;;;;;104907;1309;22536;-33
2022/11/29 13:29:40;;;;;;;7.40;5.70;;;;;;;;;;104918;1313;22528;-33
2022/11/29 13:32:27;;;;;;;;;;;;;;;;;;104946;1312;25473;-33
2022/11/29 13:35:08;;;;;;;8.20;6.40;;;;;;;;;;104903;1313;25389;-33
2022/11/29 13:37:47;;;;;;;7.50;5.80;;;;;;;;;;104909;1301;25245;-33
2022/11/29 13:40:35;;;;;;;7.50;5.60;;;;;;;;;;104889;1305;22569;-33
2022/11/29 13:43:23;;;;;;;6.80;5.50;;;;;;;;;;104887;1310;25393;-33
2022/11/29 13:46:01;;;;;;;7.00;5.30;;;;;;;;;;104935;1307;22530;-33
2022/11/29 13:48:49;;;;;;;7.20;5.30;;;;;;;;;;104880;1298;22968;-33
2022/11/29 13:51:36;;;;;;;7.20;5.80;;;;;;;;;;104818;1306;22556;-33
2022/11/29 13:54:32;;;;;;;7.20;5.70;;;;;;;;;;104855;1306;22489;-33
2022/11/29 13:57:11;;;;;;;7.10;5.60;;;;;;;;;;104875;1306;22600;-33
2022/11/29 13:59:55;;;;;;;7.40;5.70;;;;;;;;;;104798;1308;22636;-33
2022/11/29 14:02:32;;;;;;;7.10;5.40;;;;;;;;;;104910;1304;22591;-33
2022/11/29 14:05:20;;;;;;;7.30;5.40;;;;;;;;;;104858;1290;22554;-33
2022/11/29 14:08:25;;;;;;;6.70;5.40;;;;;;;;;;104920;1294;22540;-33
2022/11/29 14:11:03;;;;;;;8.00;5.80;;;;;;;;;;104938;1303;22496;-33
2022/11/29 14:13:46;;;;;;;7.30;5.60;;;;;;;;;;105139;1296;22532;-33
2022/11/29 14:16:29;;;;;;;6.90;5.60;;;;;;;;;;104902;1297;22588;-33
2022/11/29 14:19:25;;;;;;;7.20;5.80;;;;;;;;;;104909;1298;22526;-33
2022/11/29 14:22:23;;;;;;;7.20;5.70;;;;;;;;;;104923;1304;25415;-33
2022/11/29 14:25:23;;;;;;;7.60;5.60;;;;;;;;;;104927;1307;25267;-33
2022/11/29 14:28:04;;;;;;;7.60;5.70;;;;;;;;;;104979;1300;22544;-33
2022/11/29 14:30:49;;;;;;;7.30;5.50;;;;;;;;;;104942;1304;22592;-32
2022/11/29 14:33:52;;;;;;;7.10;5.70;;;;;;;;;;104807;1298;305823;-33
2022/11/29 14:36:44;;;;;;;6.90;5.50;;;;;;;;;;104912;1291;22848;-33
2022/11/29 14:39:37;;;;;;;7.70;6.00;;;;;;;;;;104944;1306;22488;-33
2022/11/29 14:42:17;;;;;;;7.20;5.50;;;;;;;;;;104854;1314;22595;-33
2022/11/29 14:44:54;;;;;;;7.60;5.40;;;;;;;;;;105002;1307;22550;-33
2022/11/29 14:47:31;;;;;;;7.30;5.80;;;;;;;;;;105004;1297;22652;-33
2022/11/29 14:50:09;;;;;;;6.90;5.40;;;;;;;;;;104857;1300;22558;-33
2022/11/29 14:52:51;;;;;;;7.10;5.70;;;;;;;;;;104960;1306;22526;-33
2022/11/29 14:55:37;;;;;;;7.10;5.30;;;;;;;;;;104896;1312;22622;-32
2022/11/29 14:58:23;;;;;;;7.00;5.40;;;;;;;;;;104879;1306;22589;-33
2022/11/29 15:01:09;;;;;;;7.70;5.90;;;;;;;;;;104861;1309;22617;-32
2022/11/29 15:03:48;;;;;;;7.10;5.50;;;;;;;;;;104962;1305;22535;-33
2022/11/29 15:06:28;;;;;;;7.40;5.80;;;;;;;;;;105000;1305;22533;-33
2022/11/29 15:09:13;;;;;;;7.80;6.20;;;;;;;;;;104990;1308;22541;-33
2022/11/29 15:11:53;;;;;;;8.00;6.10;;;;;;;;;;104876;1312;22544;-33
2022/11/29 15:14:40;;;;;;;8.10;6.00;;;;;;;;;;104875;1306;22582;-32
2022/11/29 15:17:26;;;;;;;7.40;5.70;;;;;;;;;;104873;1312;22568;-32
2022/11/29 15:20:43;;;;;;;7.70;5.70;;;;;;;;;;104918;1307;22579;-33
2022/11/29 15:23:18;;;;;;;7.80;6.10;;;;;;;;;;105041;1304;22528;-33
2022/11/29 15:25:54;;;;;;;8.60;6.50;;;;;;;;;;105064;1304;22954;-33
2022/11/29 15:28:29;;;;;;;8.40;6.30;;;;;;;;;;105092;1295;22537;-33
2022/11/29 15:31:07;;;;;;;8.90;6.20;;;;;;;;;;105051;1304;22558;-33
2022/11/29 15:33:43;;;;;;;8.50;6.60;;;;;;;;;;105104;1306;22496;-32
2022/11/29 15:36:21;;;;;;;8.40;6.40;;;;;;;;;;104998;1306;23751;-33
2022/11/29 15:38:57;;;;;;;8.30;6.30;;;;;;;;;;105021;1301;22531;-32
2022/11/29 15:41:34;;;;;;;9.70;6.60;;;;;;;;;;105024;1306;22569;-33
2022/11/29 15:44:18;;;;;;;10.30;6.60;;;;;;;;;;105102;1303;22648;-33
2022/11/29 15:46:56;;;;;;;8.40;6.50;;;;;;;;;;105073;1310;22635;-33
2022/11/29 15:49:30;;;;;;;8.70;6.10;;;;;;;;;;105115;1298;22637;-33
2022/11/29 15:52:10;;;;;;;9.40;6.40;;;;;;;;;;105063;1304;22502;-32
2022/11/29 15:54:47;;;;;;;8.90;6.50;;;;;;;;;;104993;1293;22531;-33
2022/11/29 15:57:26;;;;;;;8.00;6.10;;;;;;;;;;105015;1306;22558;-33
2022/11/29 16:00:05;;;;;;;8.80;6.70;;;;;;;;;;105021;1309;22531;-32
2022/11/29 16:02:46;;;;;;;8.20;6.10;;;;;;;;;;104969;1298;22518;-33
2022/11/29 16:05:25;;;;;;;8.50;6.40;;;;;;;;;;105023;1304;22949;-33